ARG1646 SABE-SAZN
Flight info
| Callsign | ARG1646 |
|---|---|
| Flight time | 1h 32m |
| Altitude | 32000 |
| Route | PAL9 TORUL UT654 BIXIM UT669 ROPON ROPON3Q |
| Aircraft | B738/M-SDE2E3FGHIRWXY/LB1 |
Departure
| Time | 2026-04-24 20:14 |
|---|---|
| Airport | Aeroparque Jorge Newbery (SABE) |
Arrival
| Time | 2026-04-24 21:46 |
|---|---|
| Airport | Presidente Perón International Airport (SAZN) |
| Time | Latitude | Longitude | Altitude | Speed | Heading |
|---|---|---|---|---|---|
| 2026-04-24 19:42 | -34.55760 | -58.41325 | 25 ft | 0 kts | 35° |
| 2026-04-24 20:05 | -34.55771 | -58.41334 | 28 ft | 4 kts | 34° |
| 2026-04-24 20:05 | -34.55793 | -58.41348 | 27 ft | 4 kts | 359° |
| 2026-04-24 20:05 | -34.55807 | -58.41338 | 30 ft | 4 kts | 303° |
| 2026-04-24 20:06 | -34.55821 | -58.41312 | 28 ft | 2 kts | 301° |
| 2026-04-24 20:06 | -34.55822 | -58.41310 | 28 ft | 0 kts | 301° |
| 2026-04-24 20:08 | -34.55819 | -58.41315 | 27 ft | 2 kts | 301° |
| 2026-04-24 20:08 | -34.55805 | -58.41342 | 27 ft | 5 kts | 303° |
| 2026-04-24 20:09 | -34.55775 | -58.41396 | 27 ft | 11 kts | 304° |
| 2026-04-24 20:09 | -34.55734 | -58.41477 | 27 ft | 11 kts | 298° |
| 2026-04-24 20:09 | -34.55741 | -58.41563 | 27 ft | 12 kts | 221° |
| 2026-04-24 20:09 | -34.55778 | -58.41647 | 26 ft | 13 kts | 287° |
| 2026-04-24 20:10 | -34.55741 | -58.41743 | 26 ft | 12 kts | 297° |
| 2026-04-24 20:10 | -34.55695 | -58.41830 | 24 ft | 12 kts | 303° |
| 2026-04-24 20:10 | -34.55649 | -58.41913 | 25 ft | 12 kts | 304° |
| 2026-04-24 20:10 | -34.55604 | -58.41994 | 25 ft | 11 kts | 304° |
| 2026-04-24 20:11 | -34.55557 | -58.42074 | 24 ft | 12 kts | 307° |
| 2026-04-24 20:11 | -34.55500 | -58.42166 | 27 ft | 15 kts | 307° |
| 2026-04-24 20:11 | -34.55431 | -58.42277 | 25 ft | 18 kts | 307° |
| 2026-04-24 20:11 | -34.55371 | -58.42388 | 28 ft | 16 kts | 287° |
| 2026-04-24 20:12 | -34.55376 | -58.42494 | 28 ft | 13 kts | 225° |
| 2026-04-24 20:12 | -34.55418 | -58.42484 | 25 ft | 3 kts | 124° |
| 2026-04-24 20:13 | -34.55421 | -58.42479 | 25 ft | 7 kts | 124° |
| 2026-04-24 20:13 | -34.55595 | -58.42169 | 27 ft | 83 kts | 124° |
| 2026-04-24 20:13 | -34.56053 | -58.41347 | 30 ft | 149 kts | 124° |
| 2026-04-24 20:14 | -34.56697 | -58.40197 | 483 ft | 170 kts | 123° |
| 2026-04-24 20:14 | -34.57366 | -58.38983 | 1344 ft | 178 kts | 120° |
| 2026-04-24 20:14 | -34.57739 | -58.37484 | 1738 ft | 202 kts | 81° |
| 2026-04-24 20:14 | -34.57094 | -58.35900 | 1994 ft | 222 kts | 50° |
| 2026-04-24 20:15 | -34.56149 | -58.34343 | 2397 ft | 239 kts | 55° |
| 2026-04-24 20:15 | -34.55243 | -58.32556 | 2846 ft | 254 kts | 58° |
| 2026-04-24 20:15 | -34.54366 | -58.30662 | 3632 ft | 259 kts | 59° |
| 2026-04-24 20:15 | -34.53312 | -58.28948 | 4419 ft | 262 kts | 36° |
| 2026-04-24 20:16 | -34.51644 | -58.28170 | 4900 ft | 262 kts | 1° |
| 2026-04-24 20:16 | -34.49884 | -58.28679 | 5022 ft | 262 kts | 327° |
| 2026-04-24 20:16 | -34.48712 | -58.30329 | 5052 ft | 265 kts | 292° |
| 2026-04-24 20:16 | -34.48561 | -58.32550 | 5102 ft | 274 kts | 256° |
| 2026-04-24 20:17 | -34.49349 | -58.34668 | 5759 ft | 278 kts | 236° |
| 2026-04-24 20:17 | -34.51951 | -58.38093 | 7562 ft | 277 kts | 227° |
| 2026-04-24 20:17 | -34.53328 | -58.39757 | 8304 ft | 281 kts | 226° |
| 2026-04-24 20:18 | -34.54269 | -58.40892 | 8823 ft | 284 kts | 227° |
| 2026-04-24 20:18 | -34.56124 | -58.43145 | 9882 ft | 287 kts | 227° |
| 2026-04-24 20:18 | -34.57565 | -58.44909 | 10488 ft | 297 kts | 227° |
| 2026-04-24 20:18 | -34.59052 | -58.46740 | 10658 ft | 321 kts | 227° |
| 2026-04-24 20:19 | -34.60669 | -58.48740 | 10828 ft | 343 kts | 227° |
| 2026-04-24 20:19 | -34.62377 | -58.50857 | 11153 ft | 357 kts | 227° |
| 2026-04-24 20:19 | -34.64152 | -58.53060 | 11760 ft | 362 kts | 227° |
| 2026-04-24 20:19 | -34.65916 | -58.55253 | 12487 ft | 363 kts | 227° |
| 2026-04-24 20:20 | -34.67682 | -58.57450 | 13232 ft | 365 kts | 227° |
| 2026-04-24 20:20 | -34.69458 | -58.59663 | 13922 ft | 367 kts | 227° |
| 2026-04-24 20:20 | -34.71247 | -58.61896 | 14533 ft | 370 kts | 228° |
| 2026-04-24 20:20 | -34.73048 | -58.64147 | 15148 ft | 373 kts | 228° |
| 2026-04-24 20:21 | -34.74861 | -58.66413 | 15772 ft | 375 kts | 228° |
| 2026-04-24 20:21 | -34.76687 | -58.68698 | 16394 ft | 378 kts | 229° |
| 2026-04-24 20:21 | -34.78525 | -58.70999 | 16999 ft | 380 kts | 229° |
| 2026-04-24 20:21 | -34.80376 | -58.73318 | 17595 ft | 383 kts | 229° |
| 2026-04-24 20:22 | -34.82217 | -58.75626 | 18175 ft | 386 kts | 229° |
| 2026-04-24 20:22 | -34.84119 | -58.78013 | 18715 ft | 389 kts | 230° |
| 2026-04-24 20:22 | -34.86006 | -58.80381 | 19247 ft | 391 kts | 230° |
| 2026-04-24 20:22 | -34.87900 | -58.82760 | 19792 ft | 392 kts | 230° |
| 2026-04-24 20:23 | -34.89800 | -58.85147 | 20313 ft | 394 kts | 230° |
| 2026-04-24 20:23 | -34.91710 | -58.87550 | 20813 ft | 396 kts | 230° |
| 2026-04-24 20:23 | -34.93631 | -58.89968 | 21295 ft | 398 kts | 230° |
| 2026-04-24 20:23 | -34.95562 | -58.92401 | 21778 ft | 400 kts | 230° |
| 2026-04-24 20:24 | -34.96845 | -58.94018 | 22096 ft | 402 kts | 230° |
| 2026-04-24 20:24 | -34.99450 | -58.97303 | 22733 ft | 404 kts | 230° |
| 2026-04-24 20:24 | -35.01384 | -58.99745 | 23169 ft | 406 kts | 230° |
| 2026-04-24 20:24 | -35.03352 | -59.02231 | 23600 ft | 409 kts | 230° |
| 2026-04-24 20:25 | -35.05338 | -59.04741 | 23949 ft | 411 kts | 230° |
| 2026-04-24 20:25 | -35.07329 | -59.07261 | 24320 ft | 413 kts | 230° |
| 2026-04-24 20:25 | -35.09323 | -59.09784 | 24695 ft | 414 kts | 230° |
| 2026-04-24 20:25 | -35.11327 | -59.12323 | 25053 ft | 416 kts | 230° |
| 2026-04-24 20:26 | -35.13339 | -59.14874 | 25405 ft | 418 kts | 230° |
| 2026-04-24 20:26 | -35.15363 | -59.17442 | 25749 ft | 419 kts | 230° |
| 2026-04-24 20:26 | -35.17389 | -59.20014 | 26079 ft | 421 kts | 230° |
| 2026-04-24 20:26 | -35.19423 | -59.22600 | 26403 ft | 423 kts | 230° |
| 2026-04-24 20:27 | -35.21462 | -59.25194 | 26725 ft | 424 kts | 230° |
| 2026-04-24 20:27 | -35.23510 | -59.27800 | 27032 ft | 426 kts | 230° |
| 2026-04-24 20:27 | -35.25567 | -59.30420 | 27369 ft | 427 kts | 230° |
| 2026-04-24 20:27 | -35.27621 | -59.33038 | 27820 ft | 425 kts | 230° |
| 2026-04-24 20:28 | -35.29655 | -59.35632 | 28324 ft | 422 kts | 230° |
| 2026-04-24 20:28 | -35.31681 | -59.38217 | 28794 ft | 420 kts | 230° |
| 2026-04-24 20:28 | -35.33695 | -59.40792 | 29210 ft | 419 kts | 230° |
| 2026-04-24 20:28 | -35.35706 | -59.43372 | 29623 ft | 417 kts | 232° |
| 2026-04-24 20:29 | -35.36945 | -59.45157 | 29904 ft | 413 kts | 237° |
| 2026-04-24 20:29 | -35.39184 | -59.48958 | 30448 ft | 410 kts | 238° |
| 2026-04-24 20:29 | -35.40830 | -59.51800 | 30774 ft | 409 kts | 238° |
| 2026-04-24 20:29 | -35.42471 | -59.54635 | 31107 ft | 408 kts | 238° |
| 2026-04-24 20:30 | -35.44114 | -59.57468 | 31433 ft | 407 kts | 238° |
| 2026-04-24 20:30 | -35.45752 | -59.60285 | 31763 ft | 406 kts | 238° |
| 2026-04-24 20:30 | -35.47393 | -59.63103 | 32035 ft | 406 kts | 238° |
| 2026-04-24 20:30 | -35.49045 | -59.65940 | 32018 ft | 409 kts | 238° |
| 2026-04-24 20:31 | -35.52353 | -59.71616 | 32026 ft | 407 kts | 238° |
| 2026-04-24 20:31 | -35.55620 | -59.77223 | 32030 ft | 403 kts | 238° |
| 2026-04-24 20:32 | -35.58876 | -59.82827 | 32029 ft | 403 kts | 238° |
| 2026-04-24 20:32 | -35.62123 | -59.88426 | 32030 ft | 403 kts | 238° |
| 2026-04-24 20:33 | -35.64823 | -59.93088 | 32028 ft | 403 kts | 238° |
| 2026-04-24 20:33 | -35.68624 | -59.99659 | 32026 ft | 403 kts | 238° |
| 2026-04-24 20:34 | -35.71321 | -60.04330 | 32041 ft | 403 kts | 238° |
| 2026-04-24 20:34 | -35.74570 | -60.09966 | 32022 ft | 404 kts | 238° |
| 2026-04-24 20:35 | -35.77819 | -60.15609 | 32036 ft | 404 kts | 238° |
| 2026-04-24 20:35 | -35.81064 | -60.21256 | 32032 ft | 404 kts | 239° |
| 2026-04-24 20:36 | -35.84310 | -60.26913 | 32028 ft | 404 kts | 239° |
| 2026-04-24 20:36 | -35.87552 | -60.32573 | 32030 ft | 404 kts | 239° |
| 2026-04-24 20:37 | -35.90790 | -60.38235 | 32032 ft | 404 kts | 239° |
| 2026-04-24 20:37 | -35.94028 | -60.43906 | 32032 ft | 404 kts | 239° |
| 2026-04-24 20:38 | -35.97259 | -60.49575 | 32031 ft | 404 kts | 239° |
| 2026-04-24 20:38 | -36.00486 | -60.55245 | 32034 ft | 403 kts | 239° |
| 2026-04-24 20:39 | -36.03708 | -60.60918 | 32034 ft | 403 kts | 239° |
| 2026-04-24 20:39 | -36.06920 | -60.66582 | 32029 ft | 403 kts | 239° |
| 2026-04-24 20:40 | -36.10129 | -60.72249 | 32032 ft | 402 kts | 239° |
| 2026-04-24 20:40 | -36.13334 | -60.77919 | 32030 ft | 402 kts | 239° |
| 2026-04-24 20:41 | -36.16518 | -60.83596 | 32032 ft | 401 kts | 239° |
| 2026-04-24 20:41 | -36.19695 | -60.89278 | 32036 ft | 401 kts | 239° |
| 2026-04-24 20:42 | -36.22866 | -60.94957 | 32034 ft | 401 kts | 239° |
| 2026-04-24 20:42 | -36.26032 | -61.00635 | 32029 ft | 401 kts | 240° |
| 2026-04-24 20:43 | -36.29198 | -61.06321 | 32031 ft | 401 kts | 240° |
| 2026-04-24 20:43 | -36.32359 | -61.12009 | 32032 ft | 400 kts | 240° |
| 2026-04-24 20:44 | -36.35518 | -61.17700 | 32029 ft | 400 kts | 240° |
| 2026-04-24 20:44 | -36.38672 | -61.23392 | 32028 ft | 400 kts | 240° |
| 2026-04-24 20:45 | -36.41824 | -61.29094 | 32028 ft | 400 kts | 240° |
| 2026-04-24 20:45 | -36.44974 | -61.34802 | 32035 ft | 401 kts | 240° |
| 2026-04-24 20:46 | -36.48121 | -61.40514 | 32024 ft | 401 kts | 240° |
| 2026-04-24 20:46 | -36.51265 | -61.46231 | 32033 ft | 401 kts | 240° |
| 2026-04-24 20:47 | -36.54405 | -61.51951 | 32031 ft | 401 kts | 240° |
| 2026-04-24 20:47 | -36.57541 | -61.57673 | 32028 ft | 401 kts | 240° |
| 2026-04-24 20:48 | -36.60677 | -61.63403 | 32041 ft | 401 kts | 240° |
| 2026-04-24 20:48 | -36.63811 | -61.69141 | 32027 ft | 400 kts | 240° |
| 2026-04-24 20:49 | -36.66942 | -61.74881 | 32025 ft | 400 kts | 240° |
| 2026-04-24 20:49 | -36.70066 | -61.80620 | 32030 ft | 400 kts | 240° |
| 2026-04-24 20:50 | -36.73191 | -61.86370 | 32031 ft | 401 kts | 241° |
| 2026-04-24 20:50 | -36.76314 | -61.92127 | 32031 ft | 401 kts | 241° |
| 2026-04-24 20:51 | -36.79431 | -61.97882 | 32030 ft | 401 kts | 241° |
| 2026-04-24 20:51 | -36.82550 | -62.03650 | 32030 ft | 401 kts | 241° |
| 2026-04-24 20:52 | -36.85665 | -62.09421 | 32029 ft | 401 kts | 241° |
| 2026-04-24 20:52 | -36.88780 | -62.15202 | 32027 ft | 401 kts | 241° |
| 2026-04-24 20:53 | -36.91892 | -62.20986 | 32031 ft | 401 kts | 241° |
| 2026-04-24 20:53 | -36.95002 | -62.26778 | 32030 ft | 401 kts | 241° |
| 2026-04-24 20:54 | -36.98107 | -62.32569 | 32029 ft | 401 kts | 241° |
| 2026-04-24 20:54 | -37.01209 | -62.38366 | 32030 ft | 401 kts | 241° |
| 2026-04-24 20:55 | -37.04308 | -62.44167 | 32032 ft | 401 kts | 241° |
| 2026-04-24 20:55 | -37.07403 | -62.49970 | 32031 ft | 401 kts | 241° |
| 2026-04-24 20:56 | -37.10493 | -62.55774 | 32036 ft | 401 kts | 241° |
| 2026-04-24 20:56 | -37.13583 | -62.61589 | 32035 ft | 401 kts | 242° |
| 2026-04-24 20:57 | -37.16668 | -62.67403 | 32037 ft | 401 kts | 242° |
| 2026-04-24 20:57 | -37.19753 | -62.73229 | 32037 ft | 401 kts | 242° |
| 2026-04-24 20:58 | -37.22835 | -62.79058 | 32035 ft | 401 kts | 242° |
| 2026-04-24 20:58 | -37.25912 | -62.84888 | 32037 ft | 401 kts | 242° |
| 2026-04-24 20:59 | -37.28992 | -62.90734 | 32040 ft | 401 kts | 242° |
| 2026-04-24 20:59 | -37.32069 | -62.96586 | 32041 ft | 401 kts | 242° |
| 2026-04-24 21:00 | -37.35074 | -63.02480 | 32039 ft | 398 kts | 247° |
| 2026-04-24 21:00 | -37.37466 | -63.08735 | 32043 ft | 397 kts | 249° |
| 2026-04-24 21:01 | -37.39814 | -63.15016 | 32039 ft | 397 kts | 249° |
| 2026-04-24 21:01 | -37.42172 | -63.21302 | 32047 ft | 397 kts | 249° |
| 2026-04-24 21:02 | -37.44540 | -63.27593 | 32046 ft | 398 kts | 249° |
| 2026-04-24 21:02 | -37.46910 | -63.33892 | 32046 ft | 398 kts | 249° |
| 2026-04-24 21:03 | -37.49278 | -63.40193 | 32046 ft | 398 kts | 249° |
| 2026-04-24 21:03 | -37.51644 | -63.46503 | 32046 ft | 398 kts | 249° |
| 2026-04-24 21:04 | -37.54008 | -63.52819 | 32045 ft | 399 kts | 249° |
| 2026-04-24 21:04 | -37.56369 | -63.59142 | 32043 ft | 399 kts | 249° |
| 2026-04-24 21:05 | -37.58723 | -63.65458 | 32044 ft | 398 kts | 249° |
| 2026-04-24 21:05 | -37.61075 | -63.71783 | 32042 ft | 398 kts | 249° |
| 2026-04-24 21:06 | -37.63421 | -63.78106 | 32045 ft | 398 kts | 249° |
| 2026-04-24 21:06 | -37.65765 | -63.84434 | 32046 ft | 398 kts | 249° |
| 2026-04-24 21:07 | -37.68101 | -63.90756 | 32045 ft | 398 kts | 249° |
| 2026-04-24 21:07 | -37.70436 | -63.97087 | 32046 ft | 397 kts | 249° |
| 2026-04-24 21:08 | -37.72765 | -64.03415 | 32050 ft | 397 kts | 249° |
| 2026-04-24 21:08 | -37.75090 | -64.09746 | 32044 ft | 397 kts | 249° |
| 2026-04-24 21:09 | -37.77413 | -64.16083 | 32045 ft | 397 kts | 249° |
| 2026-04-24 21:09 | -37.79730 | -64.22421 | 32044 ft | 397 kts | 249° |
| 2026-04-24 21:10 | -37.82051 | -64.28779 | 32054 ft | 398 kts | 249° |
| 2026-04-24 21:10 | -37.84365 | -64.35135 | 32048 ft | 398 kts | 249° |
| 2026-04-24 21:11 | -37.86682 | -64.41508 | 32042 ft | 398 kts | 249° |
| 2026-04-24 21:11 | -37.88993 | -64.47882 | 32044 ft | 398 kts | 249° |
| 2026-04-24 21:12 | -37.90912 | -64.53182 | 32044 ft | 399 kts | 249° |
| 2026-04-24 21:12 | -37.93608 | -64.60646 | 32047 ft | 399 kts | 249° |
| 2026-04-24 21:13 | -37.95910 | -64.67033 | 32049 ft | 399 kts | 249° |
| 2026-04-24 21:13 | -37.98208 | -64.73425 | 32049 ft | 399 kts | 249° |
| 2026-04-24 21:14 | -38.00489 | -64.79781 | 32051 ft | 398 kts | 249° |
| 2026-04-24 21:14 | -38.02777 | -64.86172 | 32050 ft | 398 kts | 249° |
| 2026-04-24 21:15 | -38.05063 | -64.92568 | 32048 ft | 398 kts | 249° |
| 2026-04-24 21:15 | -38.06972 | -64.97922 | 32052 ft | 398 kts | 249° |
| 2026-04-24 21:16 | -38.09247 | -65.04314 | 32053 ft | 397 kts | 249° |
| 2026-04-24 21:16 | -38.11519 | -65.10712 | 32049 ft | 397 kts | 249° |
| 2026-04-24 21:17 | -38.13788 | -65.17115 | 32055 ft | 397 kts | 249° |
| 2026-04-24 21:17 | -38.16053 | -65.23521 | 32052 ft | 397 kts | 249° |
| 2026-04-24 21:18 | -38.18313 | -65.29924 | 32055 ft | 397 kts | 249° |
| 2026-04-24 21:18 | -38.20572 | -65.36341 | 32052 ft | 397 kts | 249° |
| 2026-04-24 21:19 | -38.22827 | -65.42759 | 32057 ft | 397 kts | 249° |
| 2026-04-24 21:19 | -38.25077 | -65.49178 | 32056 ft | 398 kts | 249° |
| 2026-04-24 21:20 | -38.28449 | -65.58824 | 32054 ft | 398 kts | 249° |
| 2026-04-24 21:21 | -38.30694 | -65.65263 | 32061 ft | 398 kts | 249° |
| 2026-04-24 21:21 | -38.32935 | -65.71704 | 32061 ft | 398 kts | 249° |
| 2026-04-24 21:22 | -38.35172 | -65.78149 | 32057 ft | 398 kts | 249° |
| 2026-04-24 21:22 | -38.37407 | -65.84603 | 32052 ft | 398 kts | 249° |
| 2026-04-24 21:23 | -38.39639 | -65.91060 | 32052 ft | 398 kts | 249° |
| 2026-04-24 21:23 | -38.40749 | -65.94278 | 31583 ft | 402 kts | 249° |
| 2026-04-24 21:23 | -38.41880 | -65.97546 | 31139 ft | 396 kts | 249° |
| 2026-04-24 21:23 | -38.42996 | -66.00747 | 30687 ft | 392 kts | 248° |
| 2026-04-24 21:24 | -38.44086 | -66.03868 | 30247 ft | 389 kts | 248° |
| 2026-04-24 21:24 | -38.45180 | -66.07003 | 29723 ft | 385 kts | 248° |
| 2026-04-24 21:24 | -38.46264 | -66.10116 | 29240 ft | 381 kts | 248° |
| 2026-04-24 21:24 | -38.47332 | -66.13189 | 28768 ft | 377 kts | 248° |
| 2026-04-24 21:25 | -38.48390 | -66.16235 | 28310 ft | 374 kts | 248° |
| 2026-04-24 21:25 | -38.49436 | -66.19253 | 27870 ft | 370 kts | 248° |
| 2026-04-24 21:25 | -38.50473 | -66.22251 | 27395 ft | 367 kts | 248° |
| 2026-04-24 21:25 | -38.51501 | -66.25223 | 26940 ft | 365 kts | 248° |
| 2026-04-24 21:26 | -38.52521 | -66.28175 | 26494 ft | 362 kts | 248° |
| 2026-04-24 21:26 | -38.53533 | -66.31108 | 26058 ft | 360 kts | 248° |
| 2026-04-24 21:26 | -38.54538 | -66.34025 | 25620 ft | 358 kts | 248° |
| 2026-04-24 21:26 | -38.55541 | -66.36935 | 25186 ft | 356 kts | 248° |
| 2026-04-24 21:27 | -38.56535 | -66.39822 | 24755 ft | 355 kts | 248° |
| 2026-04-24 21:27 | -38.57525 | -66.42702 | 24321 ft | 354 kts | 248° |
| 2026-04-24 21:27 | -38.58511 | -66.45575 | 23865 ft | 353 kts | 248° |
| 2026-04-24 21:27 | -38.59497 | -66.48455 | 23382 ft | 353 kts | 248° |
| 2026-04-24 21:28 | -38.60476 | -66.51322 | 22901 ft | 351 kts | 248° |
| 2026-04-24 21:28 | -38.61450 | -66.54175 | 22427 ft | 349 kts | 248° |
| 2026-04-24 21:28 | -38.62418 | -66.57014 | 22018 ft | 347 kts | 248° |
| 2026-04-24 21:28 | -38.63378 | -66.59831 | 21580 ft | 345 kts | 248° |
| 2026-04-24 21:29 | -38.64333 | -66.62636 | 21155 ft | 343 kts | 248° |
| 2026-04-24 21:29 | -38.65280 | -66.65423 | 20735 ft | 341 kts | 248° |
| 2026-04-24 21:29 | -38.66222 | -66.68196 | 20316 ft | 339 kts | 248° |
| 2026-04-24 21:29 | -38.67159 | -66.70958 | 19895 ft | 338 kts | 248° |
| 2026-04-24 21:30 | -38.68092 | -66.73710 | 19491 ft | 336 kts | 248° |
| 2026-04-24 21:30 | -38.69022 | -66.76456 | 19078 ft | 335 kts | 248° |
| 2026-04-24 21:30 | -38.69947 | -66.79187 | 18676 ft | 334 kts | 248° |
| 2026-04-24 21:30 | -38.70867 | -66.81910 | 18243 ft | 333 kts | 248° |
| 2026-04-24 21:31 | -38.71786 | -66.84629 | 17776 ft | 332 kts | 248° |
| 2026-04-24 21:31 | -38.72699 | -66.87335 | 17347 ft | 330 kts | 248° |
| 2026-04-24 21:31 | -38.73608 | -66.90032 | 16923 ft | 329 kts | 248° |
| 2026-04-24 21:31 | -38.74510 | -66.92710 | 16512 ft | 327 kts | 248° |
| 2026-04-24 21:32 | -38.75407 | -66.95374 | 16105 ft | 325 kts | 248° |
| 2026-04-24 21:32 | -38.76298 | -66.98023 | 15708 ft | 323 kts | 248° |
| 2026-04-24 21:32 | -38.77185 | -67.00667 | 15306 ft | 322 kts | 248° |
| 2026-04-24 21:32 | -38.78068 | -67.03295 | 14908 ft | 321 kts | 248° |
| 2026-04-24 21:33 | -38.78947 | -67.05918 | 14511 ft | 320 kts | 249° |
| 2026-04-24 21:33 | -38.79824 | -67.08539 | 14114 ft | 319 kts | 249° |
| 2026-04-24 21:33 | -38.80697 | -67.11147 | 13698 ft | 318 kts | 249° |
| 2026-04-24 21:33 | -38.81567 | -67.13750 | 13264 ft | 318 kts | 249° |
| 2026-04-24 21:34 | -38.82436 | -67.16351 | 12832 ft | 316 kts | 249° |
| 2026-04-24 21:34 | -38.83300 | -67.18938 | 12439 ft | 315 kts | 248° |
| 2026-04-24 21:34 | -38.84160 | -67.21520 | 12032 ft | 314 kts | 248° |
| 2026-04-24 21:34 | -38.85016 | -67.24089 | 11642 ft | 313 kts | 248° |
| 2026-04-24 21:35 | -38.85870 | -67.26653 | 11248 ft | 312 kts | 248° |
| 2026-04-24 21:35 | -38.86719 | -67.29208 | 10860 ft | 311 kts | 248° |
| 2026-04-24 21:35 | -38.87568 | -67.31762 | 10539 ft | 308 kts | 248° |
| 2026-04-24 21:35 | -38.88399 | -67.34266 | 10324 ft | 302 kts | 248° |
| 2026-04-24 21:36 | -38.89211 | -67.36714 | 10178 ft | 295 kts | 248° |
| 2026-04-24 21:36 | -38.90003 | -67.39102 | 10035 ft | 287 kts | 248° |
| 2026-04-24 21:36 | -38.90773 | -67.41430 | 9927 ft | 279 kts | 247° |
| 2026-04-24 21:36 | -38.91518 | -67.43680 | 9807 ft | 271 kts | 248° |
| 2026-04-24 21:37 | -38.92270 | -67.45956 | 9272 ft | 278 kts | 248° |
| 2026-04-24 21:37 | -38.93030 | -67.48256 | 8878 ft | 280 kts | 247° |
| 2026-04-24 21:37 | -38.93775 | -67.50563 | 8546 ft | 280 kts | 251° |
| 2026-04-24 21:37 | -38.94089 | -67.53020 | 8240 ft | 279 kts | 267° |
| 2026-04-24 21:38 | -38.94131 | -67.55508 | 7923 ft | 279 kts | 268° |
| 2026-04-24 21:38 | -38.94162 | -67.57995 | 7609 ft | 279 kts | 268° |
| 2026-04-24 21:38 | -38.94195 | -67.60481 | 7297 ft | 278 kts | 268° |
| 2026-04-24 21:38 | -38.94232 | -67.62965 | 6986 ft | 278 kts | 268° |
| 2026-04-24 21:39 | -38.94272 | -67.65446 | 6670 ft | 277 kts | 268° |
| 2026-04-24 21:39 | -38.94314 | -67.67920 | 6358 ft | 277 kts | 267° |
| 2026-04-24 21:39 | -38.94340 | -67.69409 | 6153 ft | 277 kts | 267° |
| 2026-04-24 21:39 | -38.94383 | -67.71872 | 5967 ft | 272 kts | 267° |
| 2026-04-24 21:40 | -38.94425 | -67.74272 | 5845 ft | 266 kts | 267° |
| 2026-04-24 21:40 | -38.94465 | -67.76617 | 5714 ft | 259 kts | 267° |
| 2026-04-24 21:40 | -38.94504 | -67.78904 | 5614 ft | 253 kts | 267° |
| 2026-04-24 21:40 | -38.94541 | -67.81106 | 5460 ft | 241 kts | 267° |
| 2026-04-24 21:41 | -38.94607 | -67.83232 | 5239 ft | 234 kts | 265° |
| 2026-04-24 21:41 | -38.94687 | -67.85286 | 4971 ft | 227 kts | 265° |
| 2026-04-24 21:41 | -38.94764 | -67.87294 | 4736 ft | 224 kts | 265° |
| 2026-04-24 21:41 | -38.94838 | -67.89264 | 4480 ft | 218 kts | 265° |
| 2026-04-24 21:42 | -38.94911 | -67.91191 | 4202 ft | 214 kts | 264° |
| 2026-04-24 21:42 | -38.94966 | -67.93086 | 3947 ft | 210 kts | 266° |
| 2026-04-24 21:42 | -38.94964 | -67.94929 | 3724 ft | 203 kts | 267° |
| 2026-04-24 21:42 | -38.94954 | -67.96694 | 3528 ft | 195 kts | 266° |
| 2026-04-24 21:43 | -38.94951 | -67.98393 | 3282 ft | 184 kts | 267° |
| 2026-04-24 21:43 | -38.94941 | -67.99973 | 3051 ft | 174 kts | 266° |
| 2026-04-24 21:43 | -38.94937 | -68.01468 | 2820 ft | 162 kts | 265° |
| 2026-04-24 21:43 | -38.94933 | -68.02838 | 2650 ft | 146 kts | 265° |
| 2026-04-24 21:44 | -38.94929 | -68.04101 | 2450 ft | 138 kts | 265° |
| 2026-04-24 21:44 | -38.94927 | -68.05343 | 2265 ft | 140 kts | 265° |
| 2026-04-24 21:44 | -38.94924 | -68.06598 | 2075 ft | 141 kts | 265° |
| 2026-04-24 21:44 | -38.94921 | -68.07850 | 1889 ft | 141 kts | 266° |
| 2026-04-24 21:45 | -38.94914 | -68.09140 | 1710 ft | 147 kts | 267° |
| 2026-04-24 21:45 | -38.94918 | -68.10457 | 1500 ft | 149 kts | 269° |
| 2026-04-24 21:45 | -38.94918 | -68.11785 | 1302 ft | 149 kts | 270° |
| 2026-04-24 21:45 | -38.94908 | -68.13131 | 1083 ft | 153 kts | 271° |
| 2026-04-24 21:46 | -38.94902 | -68.14492 | 908 ft | 149 kts | 271° |
| 2026-04-24 21:46 | -38.94900 | -68.15681 | 907 ft | 113 kts | 269° |
| 2026-04-24 21:46 | -38.94902 | -68.16377 | 902 ft | 52 kts | 269° |
| 2026-04-24 21:46 | -38.94918 | -68.16569 | 904 ft | 9 kts | 257° |
| 2026-04-24 21:47 | -38.94904 | -68.16602 | 903 ft | 4 kts | 351° |
| 2026-04-24 21:47 | -38.94890 | -68.16585 | 901 ft | 4 kts | 71° |
| 2026-04-24 21:47 | -38.94891 | -68.16463 | 906 ft | 16 kts | 90° |
| 2026-04-24 21:47 | -38.94895 | -68.16276 | 907 ft | 25 kts | 91° |
| 2026-04-24 21:48 | -38.94897 | -68.16019 | 911 ft | 32 kts | 91° |
| 2026-04-24 21:48 | -38.94900 | -68.15701 | 904 ft | 38 kts | 90° |
| 2026-04-24 21:48 | -38.94901 | -68.15372 | 902 ft | 32 kts | 90° |
| 2026-04-24 21:48 | -38.94917 | -68.15118 | 903 ft | 25 kts | 118° |
| 2026-04-24 21:49 | -38.95031 | -68.14966 | 902 ft | 23 kts | 137° |
| 2026-04-24 21:49 | -38.95092 | -68.14791 | 903 ft | 22 kts | 90° |
| 2026-04-24 21:49 | -38.95092 | -68.14594 | 903 ft | 22 kts | 90° |
| 2026-04-24 21:49 | -38.95093 | -68.14404 | 903 ft | 21 kts | 90° |
| 2026-04-24 21:50 | -38.95094 | -68.14223 | 903 ft | 15 kts | 91° |
| 2026-04-24 21:50 | -38.95095 | -68.14101 | 903 ft | 8 kts | 91° |
| 2026-04-24 21:50 | -38.95119 | -68.14071 | 903 ft | 5 kts | 168° |
| 2026-04-24 21:50 | -38.95150 | -68.14069 | 903 ft | 3 kts | 179° |
| 2026-04-24 21:51 | -38.95156 | -68.14069 | 903 ft | 0 kts | 179° |